Time;durP1;ratioP1;P1;durP2;ratioP2;P2;SDS_P1;SDS_P2;PMS_P1;PMS_P2;Temp;Humidity;BMP_temperature;BMP_pressure;BME280_temperature;BME280_humidity;BME280_pressure;Samples;Min_cycle;Max_cycle;Signal;HPM_P1;HPM_P2
2022/06/18 00:00:58;;;;;;;1.75;0.80;;;14.80;99.90;;;;;;5006277;28;20490;-65
2022/06/18 00:03:27;;;;;;;2.95;0.90;;;14.90;99.90;;;;;;5008209;28;20360;-68
2022/06/18 00:05:58;;;;;;;2.60;0.80;;;15.00;99.90;;;;;;5006484;28;20056;-65
2022/06/18 00:08:30;;;;;;;2.92;0.85;;;15.10;99.90;;;;;;5008575;28;20033;-63
2022/06/18 00:14:09;;;;;;;3.95;0.77;;;15.20;99.90;;;;;;4940144;28;20035;-65
2022/06/18 00:16:36;;;;;;;3.65;1.00;;;15.40;99.90;;;;;;4943398;28;20175;-65
2022/06/18 00:19:04;;;;;;;2.13;0.70;;;15.30;99.90;;;;;;4937147;28;20042;-64
2022/06/18 00:21:31;;;;;;;2.60;0.77;;;15.40;99.90;;;;;;4940634;28;20476;-67
2022/06/18 00:23:58;;;;;;;2.97;0.98;;;15.60;99.90;;;;;;4944166;28;20023;-64
2022/06/18 00:26:25;;;;;;;0.80;0.50;;;15.80;99.90;;;;;;4941743;28;20127;-65
2022/06/18 00:28:52;;;;;;;2.70;0.82;;;16.00;99.90;;;;;;4938085;28;20031;-66
2022/06/18 00:31:19;;;;;;;1.58;1.00;;;16.10;99.90;;;;;;4936818;28;20090;-66
2022/06/18 00:33:46;;;;;;;2.58;0.40;;;16.20;99.90;;;;;;4944304;28;20038;-65
2022/06/18 00:36:17;;;;;;;0.82;0.50;;;16.40;99.90;;;;;;4928530;29;20389;-67
2022/06/18 00:38:48;;;;;;;3.60;0.50;;;16.40;99.90;;;;;;4938666;28;20136;-66
2022/06/18 00:41:26;;;;;;;3.20;0.70;;;16.50;99.90;;;;;;4939311;28;20134;-64
2022/06/18 00:43:59;;;;;;;0.85;0.50;;;16.50;99.90;;;;;;4940218;28;20095;-64
2022/06/18 00:46:44;;;;;;;7.43;2.15;;;16.60;99.90;;;;;;5006110;28;20068;-64
2022/06/18 00:49:30;;;;;;;0.60;0.52;;;16.80;99.90;;;;;;5006431;28;20018;-64
2022/06/18 00:52:13;;;;;;;3.22;1.15;;;17.00;99.90;;;;;;5003711;28;20032;-63
2022/06/18 00:55:11;;;;;;;0.95;0.70;;;16.90;99.90;;;;;;5006788;28;20576;-68
2022/06/18 00:58:03;;;;;;;1.52;0.73;;;17.00;99.90;;;;;;4925428;29;20039;-65
2022/06/18 01:00:51;;;;;;;1.55;0.60;;;17.10;99.90;;;;;;4925830;29;20027;-64
2022/06/18 01:03:26;;;;;;;3.03;0.57;;;17.10;99.60;;;;;;4925721;29;20551;-66
2022/06/18 01:05:55;;;;;;;2.05;0.80;;;17.10;99.90;;;;;;4926797;29;20028;-66
2022/06/18 01:08:26;;;;;;;3.03;1.38;;;17.30;99.80;;;;;;4926170;29;20499;-68
2022/06/18 01:10:58;;;;;;;2.75;0.80;;;17.60;99.80;;;;;;4926408;29;20027;-66
2022/06/18 01:13:32;;;;;;;0.77;0.52;;;17.80;99.10;;;;;;4925330;29;20123;-65
2022/06/18 01:16:00;;;;;;;4.45;0.63;;;17.80;98.80;;;;;;4926535;29;20081;-68
2022/06/18 01:18:29;;;;;;;1.95;0.88;;;17.60;99.30;;;;;;4926313;29;20067;-63
2022/06/18 01:21:01;;;;;;;2.53;1.02;;;17.60;99.10;;;;;;4926264;29;20528;-68
2022/06/18 01:23:45;;;;;;;3.92;2.13;;;17.70;99.30;;;;;;4924450;29;20107;-68
2022/06/18 01:26:13;;;;;;;2.00;1.13;;;17.80;99.30;;;;;;4926160;29;20115;-66
2022/06/18 01:28:41;;;;;;;3.13;1.00;;;18.00;98.60;;;;;;4925873;29;20046;-65
2022/06/18 01:31:08;;;;;;;2.38;0.77;;;18.10;98.50;;;;;;4925083;29;20081;-69
2022/06/18 01:33:36;;;;;;;1.80;0.80;;;18.30;98.50;;;;;;4939947;28;20037;-68
2022/06/18 01:36:08;;;;;;;2.50;0.75;;;18.40;97.60;;;;;;5002842;28;20017;-63
2022/06/18 01:38:41;;;;;;;0.60;0.40;;;18.30;98.00;;;;;;5001086;28;20037;-64
2022/06/18 01:44:12;;;;;;;1.83;0.70;;;18.40;98.10;;;;;;4995064;28;20450;-67
2022/06/18 01:46:45;;;;;;;0.55;0.50;;;18.50;97.80;;;;;;4997242;28;20029;-65
2022/06/18 01:49:16;;;;;;;2.22;0.65;;;18.60;97.30;;;;;;4999360;28;20109;-63
2022/06/18 01:51:47;;;;;;;3.05;0.60;;;18.50;97.40;;;;;;4996399;28;20022;-64
2022/06/18 01:54:26;;;;;;;2.10;0.90;;;18.60;97.70;;;;;;5003030;28;20077;-68
2022/06/18 01:56:59;;;;;;;3.42;0.77;;;18.60;97.50;;;;;;4998054;28;20062;-66
2022/06/18 01:59:31;;;;;;;1.40;0.90;;;18.70;97.40;;;;;;5002287;28;20026;-67
2022/06/18 02:01:59;;;;;;;1.55;0.70;;;18.70;97.30;;;;;;4993759;28;20033;-64
2022/06/18 02:04:28;;;;;;;2.58;0.70;;;18.80;97.90;;;;;;4997220;28;20166;-69
2022/06/18 02:06:55;;;;;;;2.42;0.82;;;18.90;96.70;;;;;;4998433;28;20499;-67
2022/06/18 02:09:40;;;;;;;2.72;0.70;;;19.00;96.90;;;;;;4996475;28;20046;-65
2022/06/18 02:12:14;;;;;;;1.40;0.52;;;19.30;96.90;;;;;;4998490;28;20030;-64
2022/06/18 02:14:45;;;;;;;2.35;0.90;;;19.30;96.30;;;;;;4998566;28;20088;-64
2022/06/18 02:17:17;;;;;;;2.22;1.02;;;19.40;96.00;;;;;;4998769;28;20074;-67
2022/06/18 02:19:52;;;;;;;1.08;0.80;;;19.30;96.70;;;;;;4997377;28;20065;-65
2022/06/18 02:22:23;;;;;;;2.47;0.70;;;19.30;96.10;;;;;;4996131;28;20042;-67
2022/06/18 02:24:50;;;;;;;1.08;0.60;;;19.50;95.80;;;;;;4991760;28;20873;-67
2022/06/18 02:27:18;;;;;;;1.50;0.40;;;19.40;96.40;;;;;;4653400;28;10000201;-67
2022/06/18 02:29:46;;;;;;;0.63;0.55;;;19.60;96.20;;;;;;4993340;28;20042;-68
2022/06/18 02:32:29;;;;;;;2.65;0.80;;;19.80;96.00;;;;;;5000713;28;20100;-65
2022/06/18 02:34:56;;;;;;;0.82;0.70;;;19.90;95.70;;;;;;4995794;28;20038;-65
2022/06/18 02:37:28;;;;;;;2.33;0.90;;;20.00;95.40;;;;;;4977224;28;20033;-69
2022/06/18 02:40:02;;;;;;;3.65;0.88;;;20.00;95.70;;;;;;4993400;28;20394;-66
2022/06/18 02:42:33;;;;;;;2.88;0.75;;;20.10;95.90;;;;;;4996284;28;20038;-69
2022/06/18 02:45:04;;;;;;;1.17;0.63;;;19.80;95.30;;;;;;4994076;28;20022;-65
2022/06/18 02:47:32;;;;;;;2.65;0.60;;;19.80;95.50;;;;;;4997326;28;20580;-64
2022/06/18 02:50:08;;;;;;;2.30;0.82;;;19.90;95.60;;;;;;4999934;28;20026;-65
2022/06/18 02:52:49;;;;;;;1.80;0.68;;;20.00;95.60;;;;;;4996350;28;20022;-65
2022/06/18 02:55:37;;;;;;;2.55;0.73;;;20.10;95.20;;;;;;4997280;28;20061;-65
2022/06/18 02:58:07;;;;;;;1.35;0.80;;;20.20;95.60;;;;;;4994413;28;20033;-64
2022/06/18 03:00:39;;;;;;;3.65;0.77;;;20.30;95.60;;;;;;5000591;28;20035;-66
2022/06/18 03:03:10;;;;;;;2.92;0.75;;;20.50;95.20;;;;;;4991420;28;20038;-63
2022/06/18 03:05:38;;;;;;;3.00;0.90;;;20.60;94.90;;;;;;4988701;28;20076;-68
2022/06/18 03:08:06;;;;;;;4.78;1.05;;;20.80;94.70;;;;;;4994418;28;20062;-66
2022/06/18 03:13:18;;;;;;;3.88;0.80;;;20.70;94.00;;;;;;4999039;28;20085;-61
2022/06/18 03:15:52;;;;;;;2.47;1.30;;;20.50;94.50;;;;;;4989384;28;20261;-63
2022/06/18 03:18:22;;;;;;;3.45;1.10;;;20.70;95.10;;;;;;4996331;28;20035;-66
2022/06/18 03:20:59;;;;;;;1.05;0.63;;;20.50;95.00;;;;;;5002858;28;20713;-65
2022/06/18 03:23:27;;;;;;;3.45;0.98;;;20.60;94.40;;;;;;5005139;28;20080;-67
2022/06/18 03:25:55;;;;;;;1.33;0.80;;;20.80;94.40;;;;;;5000512;28;20125;-64
2022/06/18 03:28:24;;;;;;;3.03;1.15;;;21.00;94.10;;;;;;5004993;28;20112;-66
2022/06/18 03:30:51;;;;;;;2.60;0.77;;;21.00;94.10;;;;;;5005768;28;20136;-63
2022/06/18 03:33:18;;;;;;;1.42;0.60;;;20.70;93.90;;;;;;5002687;28;20087;-67
2022/06/18 03:35:48;;;;;;;2.67;0.52;;;20.70;94.90;;;;;;4982089;28;20037;-65
2022/06/18 03:38:16;;;;;;;3.83;0.95;;;20.80;94.70;;;;;;5005894;28;20037;-64
2022/06/18 03:40:44;;;;;;;2.25;0.80;;;20.70;95.00;;;;;;5003311;28;20373;-65
2022/06/18 03:43:12;;;;;;;1.88;0.80;;;20.50;94.90;;;;;;5009350;28;20129;-66
2022/06/18 03:45:44;;;;;;;3.78;0.80;;;20.40;94.80;;;;;;5006445;28;20500;-65
2022/06/18 03:48:37;;;;;;;2.75;0.70;;;20.20;94.70;;;;;;5005913;28;20205;-66
2022/06/18 03:51:04;;;;;;;3.75;0.80;;;20.30;94.80;;;;;;4935219;29;20044;-65
2022/06/18 03:53:31;;;;;;;1.67;0.60;;;20.50;95.00;;;;;;4933402;29;20111;-65
2022/06/18 03:55:58;;;;;;;1.98;0.70;;;20.80;94.20;;;;;;4938236;29;20063;-65
2022/06/18 03:58:27;;;;;;;2.53;0.85;;;20.90;93.80;;;;;;4938858;29;20030;-66
2022/06/18 04:00:54;;;;;;;1.55;0.73;;;21.10;93.80;;;;;;4935108;29;20433;-65
2022/06/18 04:03:21;;;;;;;1.65;0.70;;;21.40;94.10;;;;;;4932775;29;20520;-66
2022/06/18 04:05:49;;;;;;;1.95;0.60;;;21.80;93.80;;;;;;4941428;29;20027;-66
2022/06/18 04:08:20;;;;;;;2.78;0.95;;;21.90;92.50;;;;;;4936841;29;20044;-65
2022/06/18 04:10:48;;;;;;;3.25;0.85;;;21.50;92.70;;;;;;4930737;29;20028;-66
2022/06/18 04:13:15;;;;;;;3.58;0.95;;;21.10;93.30;;;;;;4930617;29;20038;-66
2022/06/18 04:15:42;;;;;;;4.07;0.60;;;20.60;94.30;;;;;;4932977;29;20048;-64
2022/06/18 04:18:15;;;;;;;4.15;0.90;;;20.20;95.10;;;;;;4933308;29;20570;-65
2022/06/18 04:20:43;;;;;;;1.63;0.70;;;20.00;95.00;;;;;;4933030;29;20392;-66
2022/06/18 04:23:11;;;;;;;1.70;0.75;;;19.60;95.50;;;;;;4937173;29;20078;-65
2022/06/18 04:25:39;;;;;;;3.85;0.60;;;19.80;95.90;;;;;;4936885;29;20094;-67
2022/06/18 04:28:06;;;;;;;1.73;0.70;;;20.10;95.60;;;;;;4959690;28;20046;-65
2022/06/18 04:30:33;;;;;;;1.80;0.60;;;20.50;95.40;;;;;;5005835;28;20041;-67
2022/06/18 04:33:01;;;;;;;3.35;1.00;;;20.90;94.70;;;;;;5005195;28;20080;-66
2022/06/18 04:35:28;;;;;;;2.40;1.05;;;21.10;93.90;;;;;;5005093;28;20113;-66
2022/06/18 04:37:56;;;;;;;12.75;5.93;;;21.10;93.80;;;;;;5010399;28;20022;-67
2022/06/18 04:40:31;;;;;;;5.07;1.42;;;21.00;93.80;;;;;;5011650;28;20516;-65
2022/06/18 04:43:09;;;;;;;2.78;0.95;;;20.80;94.20;;;;;;5006014;28;20058;-64
2022/06/18 04:45:37;;;;;;;2.33;0.93;;;20.70;94.40;;;;;;5008518;28;20057;-64
2022/06/18 04:48:05;;;;;;;2.60;1.25;;;20.50;94.80;;;;;;5007110;28;20022;-66
2022/06/18 04:50:36;;;;;;;2.92;1.30;;;20.40;95.40;;;;;;5011280;28;20030;-64
2022/06/18 04:53:04;;;;;;;2.78;1.30;;;20.20;95.70;;;;;;5003551;28;20032;-66
2022/06/18 04:55:31;;;;;;;4.35;1.20;;;19.80;96.10;;;;;;5005822;28;20053;-66
2022/06/18 04:57:59;;;;;;;4.22;1.30;;;19.50;96.40;;;;;;5004873;28;20021;-64
2022/06/18 05:00:26;;;;;;;3.85;1.10;;;19.30;96.70;;;;;;5006786;28;20045;-65
2022/06/18 05:02:53;;;;;;;6.60;2.03;;;19.10;97.10;;;;;;5003747;28;20036;-65
2022/06/18 05:05:25;;;;;;;2.53;1.38;;;18.90;97.60;;;;;;5007061;28;20437;-65
2022/06/18 05:07:53;;;;;;;3.83;1.25;;;18.70;97.90;;;;;;5003985;28;20030;-65
2022/06/18 05:10:21;;;;;;;3.03;1.15;;;18.50;98.10;;;;;;5006499;28;20112;-66
2022/06/18 05:12:48;;;;;;;2.25;0.93;;;18.40;98.70;;;;;;5004476;28;20100;-67
2022/06/18 05:15:16;;;;;;;7.22;1.13;;;18.20;99.00;;;;;;5003660;28;20030;-67
2022/06/18 05:17:45;;;;;;;6.05;1.75;;;18.10;99.20;;;;;;5004739;28;20036;-67
2022/06/18 05:20:23;;;;;;;5.38;1.20;;;18.10;99.40;;;;;;5005542;28;20494;-65
2022/06/18 05:22:51;;;;;;;6.25;1.20;;;18.00;99.90;;;;;;5006118;28;20095;-66
2022/06/18 05:25:19;;;;;;;6.00;1.83;;;17.90;99.80;;;;;;5004671;28;20500;-66
2022/06/18 05:27:47;;;;;;;5.65;1.20;;;17.80;99.90;;;;;;5006348;28;20069;-67
2022/06/18 05:30:19;;;;;;;5.47;2.10;;;17.70;99.90;;;;;;4986540;23;20059;-67
2022/06/18 05:32:46;;;;;;;5.63;1.30;;;17.50;99.90;;;;;;4963580;28;20030;-67
2022/06/18 05:35:14;;;;;;;2.83;1.23;;;18.00;99.90;;;;;;4967273;28;20038;-65
2022/06/18 05:37:42;;;;;;;4.78;1.10;;;18.70;99.60;;;;;;4966174;28;20023;-68
2022/06/18 05:40:11;;;;;;;2.30;1.02;;;19.40;98.70;;;;;;4966106;28;20026;-67
2022/06/18 05:42:39;;;;;;;4.07;1.20;;;19.60;98.00;;;;;;4966795;28;20073;-67
2022/06/18 05:45:08;;;;;;;5.13;1.27;;;19.30;98.20;;;;;;4968031;28;20509;-67
2022/06/18 05:47:35;;;;;;;3.05;1.13;;;19.30;98.00;;;;;;4966063;28;20023;-68
2022/06/18 05:50:06;;;;;;;4.85;1.83;;;19.00;98.40;;;;;;4965859;28;20069;-67
2022/06/18 05:52:33;;;;;;;5.90;1.58;;;18.60;98.60;;;;;;4965480;28;20050;-66
2022/06/18 05:55:01;;;;;;;5.68;1.70;;;18.30;98.80;;;;;;4968217;28;20511;-65
2022/06/18 05:57:28;;;;;;;3.78;1.30;;;18.00;99.30;;;;;;4966662;28;20030;-65
2022/06/18 05:59:55;;;;;;;3.75;1.10;;;17.80;99.50;;;;;;4967306;28;20459;-67
2022/06/18 06:02:23;;;;;;;2.30;1.15;;;17.60;99.80;;;;;;4963021;28;20479;-68
2022/06/18 06:04:50;;;;;;;5.15;1.20;;;17.40;99.90;;;;;;4965347;28;20439;-67
2022/06/18 06:07:23;;;;;;;4.28;1.13;;;17.30;99.90;;;;;;4965834;28;20534;-67
2022/06/18 06:12:37;;;;;;;3.97;1.30;;;16.90;99.90;;;;;;4967037;28;20455;-64
2022/06/18 06:15:05;;;;;;;2.13;1.33;;;16.70;99.90;;;;;;4965590;28;20078;-68
2022/06/18 06:17:33;;;;;;;3.47;1.13;;;16.50;99.90;;;;;;4960427;28;20050;-65
2022/06/18 06:20:28;;;;;;;4.60;1.42;;;16.40;99.90;;;;;;4964821;28;20062;-66
2022/06/18 06:22:55;;;;;;;4.95;1.40;;;16.20;99.90;;;;;;4967214;28;20399;-66
2022/06/18 06:25:22;;;;;;;5.15;1.38;;;16.20;99.90;;;;;;4963432;28;20645;-65
2022/06/18 06:27:49;;;;;;;8.98;1.50;;;16.00;99.90;;;;;;4963206;28;20387;-66
2022/06/18 06:30:17;;;;;;;3.78;1.30;;;16.00;99.90;;;;;;4965491;28;20369;-64
2022/06/18 06:32:45;;;;;;;3.10;1.20;;;15.90;99.90;;;;;;4968027;28;20093;-67
2022/06/18 06:35:13;;;;;;;2.20;1.20;;;15.80;99.90;;;;;;4963383;28;20023;-65
2022/06/18 06:37:41;;;;;;;5.43;1.35;;;15.70;99.90;;;;;;4963919;28;20027;-67
2022/06/18 06:40:09;;;;;;;3.10;1.80;;;15.60;99.90;;;;;;4948948;28;20054;-68
2022/06/18 06:42:48;;;;;;;4.75;1.00;;;15.50;99.90;;;;;;4971640;28;20318;-64
2022/06/18 06:45:22;;;;;;;4.80;1.45;;;15.40;99.90;;;;;;4967632;28;20038;-65
2022/06/18 06:47:50;;;;;;;5.47;1.55;;;15.30;99.90;;;;;;4971556;28;20030;-65
2022/06/18 06:50:20;;;;;;;6.57;1.35;;;15.20;99.90;;;;;;4969572;28;20018;-65
2022/06/18 06:52:49;;;;;;;4.82;1.67;;;15.20;99.90;;;;;;4969897;28;20030;-64
2022/06/18 06:58:11;;;;;;;5.80;1.67;;;15.10;99.90;;;;;;4969304;28;20178;-65
2022/06/18 07:00:45;;;;;;;2.92;1.52;;;14.90;99.90;;;;;;4966909;28;20546;-66
2022/06/18 07:03:14;;;;;;;4.88;1.27;;;14.70;99.90;;;;;;4963873;28;20062;-67
2022/06/18 07:05:42;;;;;;;4.40;1.75;;;14.60;99.90;;;;;;4969867;28;20027;-65
2022/06/18 07:08:10;;;;;;;6.38;1.92;;;14.50;99.90;;;;;;4969338;28;20042;-65
2022/06/18 07:10:37;;;;;;;7.80;1.95;;;14.30;99.90;;;;;;4952313;28;20086;-65
2022/06/18 07:13:05;;;;;;;3.97;1.65;;;14.20;99.90;;;;;;4967854;28;20614;-65
2022/06/18 07:15:34;;;;;;;6.40;2.78;;;14.20;99.90;;;;;;4968202;28;20475;-65
2022/06/18 07:18:04;;;;;;;3.80;1.92;;;14.10;99.90;;;;;;4967948;28;20399;-65
2022/06/18 07:20:31;;;;;;;6.00;2.25;;;14.00;99.90;;;;;;4969583;28;20029;-65
2022/06/18 07:22:58;;;;;;;5.65;3.85;;;13.90;99.90;;;;;;4972044;28;20031;-65
2022/06/18 07:25:25;;;;;;;5.95;3.85;;;14.00;99.90;;;;;;4969487;28;20463;-67
2022/06/18 07:27:54;;;;;;;9.65;6.95;;;13.90;99.90;;;;;;4970103;28;20574;-65
2022/06/18 07:30:21;;;;;;;9.35;5.93;;;13.80;99.90;;;;;;4969471;28;20039;-66
2022/06/18 07:32:50;;;;;;;27.10;10.00;;;13.80;99.90;;;;;;4972484;28;20035;-67
2022/06/18 07:35:21;;;;;;;11.32;6.32;;;13.80;99.90;;;;;;4968824;28;20037;-66
2022/06/18 07:37:49;;;;;;;11.77;6.07;;;13.70;99.90;;;;;;4962546;28;20030;-66
2022/06/18 07:40:16;;;;;;;8.23;4.80;;;13.70;99.90;;;;;;4971858;28;20026;-68
2022/06/18 07:42:46;;;;;;;8.25;3.22;;;13.60;99.90;;;;;;4969874;28;20505;-64
2022/06/18 07:45:23;;;;;;;7.35;3.00;;;13.50;99.90;;;;;;4972112;28;20041;-66
2022/06/18 07:47:51;;;;;;;5.88;2.60;;;13.50;99.90;;;;;;4968756;28;20027;-65
2022/06/18 07:50:20;;;;;;;6.65;3.33;;;13.50;99.90;;;;;;4969514;28;20027;-66
2022/06/18 07:52:47;;;;;;;7.13;2.78;;;13.50;99.90;;;;;;4964567;28;20022;-64
2022/06/18 07:55:22;;;;;;;5.38;2.53;;;13.40;99.90;;;;;;4967907;28;20110;-64
2022/06/18 07:57:49;;;;;;;7.70;2.67;;;13.40;99.90;;;;;;4969627;28;20114;-66
2022/06/18 08:00:19;;;;;;;9.77;3.25;;;13.30;99.90;;;;;;4953402;28;20027;-67
2022/06/18 08:02:48;;;;;;;6.32;2.42;;;13.30;99.90;;;;;;4965689;28;20031;-66
2022/06/18 08:05:22;;;;;;;6.53;2.85;;;13.20;99.90;;;;;;4971589;28;20379;-65
2022/06/18 08:07:49;;;;;;;8.95;3.42;;;13.20;99.90;;;;;;4964942;28;20542;-65
2022/06/18 08:10:16;;;;;;;9.30;3.65;;;13.20;99.90;;;;;;4969069;28;20038;-67
2022/06/18 08:12:43;;;;;;;6.07;3.20;;;13.10;99.90;;;;;;4968902;28;20060;-65
2022/06/18 08:15:11;;;;;;;5.30;2.65;;;13.10;99.90;;;;;;4967956;28;20026;-67
2022/06/18 08:17:38;;;;;;;6.50;2.30;;;13.00;99.90;;;;;;4968423;28;20030;-68
2022/06/18 08:20:07;;;;;;;7.75;2.30;;;12.90;99.90;;;;;;4966150;28;20388;-67
2022/06/18 08:22:36;;;;;;;6.95;2.45;;;12.90;99.90;;;;;;4948892;28;20023;-66
2022/06/18 08:25:04;;;;;;;4.68;2.30;;;12.90;99.90;;;;;;4967377;28;20058;-65
2022/06/18 08:27:32;;;;;;;7.07;2.80;;;12.90;99.90;;;;;;4967242;28;20498;-64
2022/06/18 08:30:00;;;;;;;7.05;2.33;;;12.90;99.90;;;;;;4965490;28;20086;-66
2022/06/18 08:32:27;;;;;;;7.80;2.28;;;12.80;99.90;;;;;;4964180;28;20027;-66
2022/06/18 08:34:54;;;;;;;7.05;3.10;;;12.70;99.90;;;;;;4963111;28;20034;-66
2022/06/18 08:37:21;;;;;;;4.78;2.08;;;12.60;99.90;;;;;;4967398;28;20470;-66
2022/06/18 08:39:49;;;;;;;5.10;2.53;;;12.50;99.90;;;;;;4966678;28;20261;-67
2022/06/18 08:42:45;;;;;;;5.13;2.20;;;12.40;99.90;;;;;;4962329;28;20591;-66
2022/06/18 08:45:18;;;;;;;7.20;3.47;;;12.40;99.90;;;;;;4962647;28;20071;-67
2022/06/18 08:48:10;;;;;;;4.78;2.72;;;12.40;99.90;;;;;;4964349;28;20081;-66
2022/06/18 08:50:55;;;;;;;6.28;3.45;;;12.40;99.90;;;;;;4937303;28;20046;-63
2022/06/18 08:53:53;;;;;;;7.43;4.00;;;12.50;99.90;;;;;;4961345;28;20035;-62
2022/06/18 08:56:39;;;;;;;8.57;3.75;;;12.60;99.90;;;;;;4963272;28;20046;-66
2022/06/18 08:59:53;;;;;;;10.23;5.53;;;12.60;99.90;;;;;;4964397;28;20073;-65
2022/06/18 09:02:32;;;;;;;7.75;5.07;;;12.60;99.90;;;;;;4953742;28;20125;-62
2022/06/18 09:05:34;;;;;;;9.57;5.50;;;12.60;99.90;;;;;;4963557;28;20831;-62
2022/06/18 09:08:28;;;;;;;7.47;5.65;;;12.50;99.90;;;;;;4960918;28;20093;-65
2022/06/18 09:11:14;;;;;;;8.02;5.90;;;12.30;99.90;;;;;;4958720;28;20491;-66
2022/06/18 09:14:02;;;;;;;14.18;8.32;;;12.20;99.90;;;;;;4960141;28;20034;-68
2022/06/18 09:16:38;;;;;;;11.85;5.13;;;12.10;99.90;;;;;;4960048;28;20852;-66
2022/06/18 09:19:11;;;;;;;9.13;5.97;;;11.90;99.90;;;;;;4961218;28;20030;-63
2022/06/18 09:21:44;;;;;;;13.13;8.20;;;11.80;99.90;;;;;;4961142;28;20073;-65
2022/06/18 09:24:17;;;;;;;9.75;6.97;;;11.70;99.90;;;;;;4960954;28;20065;-67
2022/06/18 09:26:49;;;;;;;9.75;5.88;;;11.60;99.90;;;;;;4960380;28;20031;-63
2022/06/18 09:29:32;;;;;;;7.05;4.50;;;11.60;99.90;;;;;;4960526;28;20027;-62
2022/06/18 09:32:27;;;;;;;6.10;4.55;;;11.60;99.90;;;;;;4958893;28;20038;-62
2022/06/18 09:35:17;;;;;;;8.73;4.80;;;11.70;99.90;;;;;;4858980;29;20086;-64
2022/06/18 09:38:05;;;;;;;8.63;4.93;;;11.90;99.90;;;;;;4860883;29;20109;-63
2022/06/18 09:40:51;;;;;;;6.47;4.18;;;12.10;99.90;;;;;;4861689;29;20049;-65
2022/06/18 09:43:45;;;;;;;7.07;3.58;;;12.20;99.90;;;;;;4860213;29;20059;-63
2022/06/18 09:46:48;;;;;;;6.70;4.20;;;12.30;99.90;;;;;;4861693;29;20045;-62
2022/06/18 09:49:16;;;;;;;5.78;3.45;;;12.40;99.90;;;;;;4863618;29;20501;-65
2022/06/18 09:52:13;;;;;;;9.52;4.03;;;12.50;99.90;;;;;;4862491;29;20045;-66
2022/06/18 09:54:57;;;;;;;4.57;3.28;;;12.60;99.90;;;;;;4862932;29;20068;-64
2022/06/18 09:57:29;;;;;;;6.05;3.25;;;12.60;99.90;;;;;;4860873;29;20040;-64
2022/06/18 10:00:13;;;;;;;6.97;3.30;;;12.60;99.90;;;;;;4864575;29;20124;-65
2022/06/18 10:02:55;;;;;;;11.30;3.30;;;12.60;99.90;;;;;;4864864;29;20045;-64
2022/06/18 10:08:38;;;;;;;5.90;3.50;;;12.60;99.90;;;;;;4860286;29;20040;-62
2022/06/18 10:11:09;;;;;;;5.80;3.50;;;12.60;99.90;;;;;;4874969;28;20574;-62
2022/06/18 10:13:50;;;;;;;4.10;3.42;;;12.60;99.90;;;;;;4958547;28;20525;-64
2022/06/18 10:16:27;;;;;;;6.78;4.35;;;12.70;99.90;;;;;;4962923;28;20042;-63
2022/06/18 10:19:14;;;;;;;6.78;4.32;;;12.60;99.90;;;;;;4963151;28;20030;-63
2022/06/18 10:22:06;;;;;;;8.40;3.88;;;12.50;99.90;;;;;;4962964;28;20565;-65
2022/06/18 10:24:59;;;;;;;6.05;3.45;;;12.40;99.90;;;;;;4962189;28;20065;-64
2022/06/18 10:27:45;;;;;;;8.68;3.70;;;12.40;99.90;;;;;;4960904;28;20110;-65
2022/06/18 10:30:20;;;;;;;10.50;4.28;;;12.20;99.90;;;;;;4963999;28;20105;-65
2022/06/18 10:32:53;;;;;;;5.80;2.72;;;12.10;99.90;;;;;;4964828;28;20054;-66
2022/06/18 10:36:06;;;;;;;6.55;3.05;;;12.20;99.90;;;;;;4963927;28;20047;-62
2022/06/18 10:38:41;;;;;;;6.80;3.30;;;12.20;99.90;;;;;;4885958;29;20728;-66
2022/06/18 10:41:20;;;;;;;4.75;3.00;;;12.20;99.90;;;;;;4887218;29;20294;-61
2022/06/18 10:43:47;;;;;;;4.10;2.60;;;12.10;99.90;;;;;;4888168;29;20036;-64
2022/06/18 10:46:19;;;;;;;4.18;2.53;;;12.10;99.90;;;;;;4887683;29;20745;-66
2022/06/18 10:48:59;;;;;;;4.72;2.88;;;12.00;99.90;;;;;;4886982;29;20032;-62
2022/06/18 10:51:44;;;;;;;5.22;2.47;;;12.00;99.90;;;;;;4886515;29;20708;-65
2022/06/18 10:54:12;;;;;;;6.10;3.15;;;11.80;99.90;;;;;;4886754;29;20170;-65
2022/06/18 10:56:57;;;;;;;3.97;3.10;;;11.70;99.90;;;;;;4888025;29;20033;-64
2022/06/18 10:59:39;;;;;;;5.20;2.88;;;11.60;99.90;;;;;;4887483;29;20041;-65
2022/06/18 11:02:20;;;;;;;6.15;3.45;;;11.50;99.90;;;;;;4886259;29;21434;-65
2022/06/18 11:04:57;;;;;;;3.95;2.85;;;11.30;99.90;;;;;;4886489;29;20032;-63
2022/06/18 11:07:27;;;;;;;5.53;3.08;;;11.20;99.90;;;;;;4887230;29;20069;-65
2022/06/18 11:10:05;;;;;;;5.00;2.88;;;11.10;99.90;;;;;;4886284;29;20042;-64
2022/06/18 11:12:36;;;;;;;5.80;3.08;;;11.00;99.90;;;;;;4918807;28;20042;-62
2022/06/18 11:15:23;;;;;;;5.55;2.75;;;10.90;99.90;;;;;;4965052;28;20041;-62
2022/06/18 11:18:03;;;;;;;5.40;3.15;;;10.90;99.90;;;;;;4965364;28;20105;-61
2022/06/18 11:20:33;;;;;;;9.15;2.95;;;11.00;99.90;;;;;;4965103;28;20039;-61
2022/06/18 11:23:16;;;;;;;6.32;3.47;;;11.10;99.90;;;;;;4964159;28;20030;-61
2022/06/18 11:25:51;;;;;;;5.22;2.80;;;11.20;99.90;;;;;;4965430;28;20027;-65
2022/06/18 11:28:23;;;;;;;4.18;2.80;;;11.30;99.90;;;;;;4965105;28;20037;-62
2022/06/18 11:30:52;;;;;;;4.97;3.00;;;11.40;99.90;;;;;;4965145;28;20043;-64
2022/06/18 11:33:39;;;;;;;4.82;2.83;;;11.50;99.90;;;;;;4966683;28;20313;-65
2022/06/18 11:36:09;;;;;;;4.78;2.88;;;11.60;99.90;;;;;;4965412;28;20027;-64
2022/06/18 11:38:37;;;;;;;3.78;2.60;;;11.70;99.90;;;;;;4964684;28;20097;-65
2022/06/18 11:41:16;;;;;;;4.50;2.78;;;11.70;99.90;;;;;;4965503;28;20054;-62
2022/06/18 11:43:51;;;;;;;4.65;2.30;;;11.70;99.90;;;;;;4965473;28;20033;-66
2022/06/18 11:46:44;;;;;;;4.85;3.13;;;11.80;99.90;;;;;;4966544;28;20023;-62
2022/06/18 11:49:17;;;;;;;3.70;2.90;;;11.80;99.90;;;;;;4966367;28;20642;-66
2022/06/18 11:52:04;;;;;;;5.15;3.78;;;11.80;99.90;;;;;;4966475;28;20030;-62
2022/06/18 11:54:59;;;;;;;3.42;2.53;;;11.70;99.90;;;;;;4966000;28;20106;-63
2022/06/18 11:57:42;;;;;;;3.85;2.30;;;11.80;99.90;;;;;;4966906;28;20088;-64
2022/06/18 12:00:20;;;;;;;5.72;2.58;;;11.90;99.90;;;;;;4967307;28;20444;-64
2022/06/18 12:03:21;;;;;;;9.23;3.55;;;11.90;99.90;;;;;;4965099;28;20026;-66
2022/06/18 12:05:54;;;;;;;3.30;2.00;;;12.00;99.90;;;;;;4864637;29;20032;-66
2022/06/18 12:08:22;;;;;;;5.68;2.95;;;11.90;99.90;;;;;;4866562;29;20510;-64
2022/06/18 12:10:55;;;;;;;7.03;2.83;;;11.90;99.90;;;;;;4868679;29;20041;-66
2022/06/18 12:13:36;;;;;;;7.05;2.53;;;12.00;99.90;;;;;;4868292;29;20040;-66
2022/06/18 12:16:20;;;;;;;6.25;2.60;;;11.90;99.90;;;;;;4867610;29;20113;-62
2022/06/18 12:18:53;;;;;;;5.35;2.20;;;12.00;99.90;;;;;;4867379;29;20109;-64
2022/06/18 12:21:38;;;;;;;;;;;12.00;99.90;;;;;;4868564;29;20047;-61
2022/06/18 12:24:24;;;;;;;5.70;2.20;;;11.90;99.90;;;;;;4867580;29;20433;-62
2022/06/18 12:27:08;;;;;;;6.10;2.83;;;12.00;99.90;;;;;;4867391;29;20032;-65
2022/06/18 12:29:49;;;;;;;3.58;2.05;;;11.90;99.90;;;;;;4864637;29;20521;-64
2022/06/18 12:32:34;;;;;;;3.17;1.77;;;12.00;99.90;;;;;;4865382;29;20025;-66
2022/06/18 12:35:23;;;;;;;3.97;1.60;;;11.90;99.90;;;;;;4863766;29;20058;-62
2022/06/18 12:38:08;;;;;;;4.68;2.20;;;11.90;99.90;;;;;;4863216;29;20029;-64
2022/06/18 12:40:44;;;;;;;3.30;1.83;;;11.90;99.90;;;;;;4866742;29;20076;-66
2022/06/18 12:43:30;;;;;;;5.22;2.05;;;11.80;99.90;;;;;;4958455;28;20050;-65
2022/06/18 12:46:04;;;;;;;5.43;2.35;;;11.80;99.90;;;;;;4949333;28;20026;-66
2022/06/18 12:48:53;;;;;;;4.00;2.28;;;11.90;99.90;;;;;;4966323;28;20117;-65
2022/06/18 12:51:39;;;;;;;4.10;2.05;;;11.90;99.90;;;;;;4965639;28;20487;-66
2022/06/18 12:54:21;;;;;;;2.92;2.05;;;11.90;99.90;;;;;;4964802;28;20510;-65
2022/06/18 12:57:06;;;;;;;4.22;2.65;;;11.90;99.90;;;;;;4964111;28;20109;-63
2022/06/18 13:00:03;;;;;;;5.15;2.00;;;11.80;99.90;;;;;;4963905;28;20066;-66
2022/06/18 13:02:58;;;;;;;6.03;2.97;;;11.90;99.90;;;;;;4964131;28;20117;-61
2022/06/18 13:05:51;;;;;;;4.57;2.47;;;11.90;99.90;;;;;;4964502;28;20034;-64
2022/06/18 13:08:27;;;;;;;;;;;11.80;99.90;;;;;;4964510;28;20047;-62
2022/06/18 13:11:11;;;;;;;4.68;2.53;;;11.80;99.90;;;;;;4964256;28;20397;-65
2022/06/18 13:13:44;;;;;;;2.83;1.80;;;11.90;99.90;;;;;;4948421;28;20041;-64
2022/06/18 13:16:34;;;;;;;3.15;1.80;;;12.00;99.90;;;;;;4964765;28;20503;-65
2022/06/18 13:19:17;;;;;;;3.53;2.47;;;12.00;99.90;;;;;;4962840;28;20264;-65
2022/06/18 13:21:46;;;;;;;5.90;2.70;;;11.90;99.90;;;;;;4964075;28;20061;-62
2022/06/18 13:30:10;;;;;;;3.08;1.85;;;12.00;99.90;;;;;;4965234;28;20045;-65
2022/06/18 13:32:55;;;;;;;2.97;2.00;;;12.00;99.90;;;;;;4964734;28;20042;-62
2022/06/18 13:35:41;;;;;;;3.75;2.22;;;12.00;99.90;;;;;;4963928;28;20031;-65
2022/06/18 13:38:37;;;;;;;3.25;1.45;;;11.90;99.90;;;;;;4964424;28;20130;-62
2022/06/18 13:41:40;;;;;;;3.35;1.98;;;12.00;99.90;;;;;;4964445;28;20023;-66
2022/06/18 13:44:07;;;;;;;;;;;12.00;99.90;;;;;;4964785;28;20107;-66
2022/06/18 13:47:00;;;;;;;4.93;1.92;;;12.00;99.90;;;;;;4964004;28;20399;-62
2022/06/18 13:50:01;;;;;;;3.38;1.63;;;12.00;99.90;;;;;;4964530;28;20066;-66